createdAt,value
2022-11-03T00:02:17.284Z,19.39
2022-11-03T00:07:09.672Z,19.38
2022-11-03T00:12:02.262Z,19.37
2022-11-03T00:16:55.108Z,19.36
2022-11-03T00:21:47.753Z,19.34
2022-11-03T00:26:40.552Z,19.34
2022-11-03T00:31:33.235Z,19.32
2022-11-03T00:36:25.826Z,19.3
2022-11-03T00:41:18.468Z,19.31
2022-11-03T00:46:11.070Z,19.3
2022-11-03T00:51:03.861Z,19.29
2022-11-03T00:55:56.669Z,19.28
2022-11-03T01:00:49.231Z,19.26
2022-11-03T01:05:42.042Z,19.27
2022-11-03T01:10:34.767Z,19.26
2022-11-03T01:15:27.485Z,19.25
2022-11-03T01:20:20.181Z,19.24
2022-11-03T01:25:12.717Z,19.23
2022-11-03T01:30:05.387Z,19.21
2022-11-03T01:34:58.103Z,19.19
2022-11-03T01:39:50.790Z,19.18
2022-11-03T01:44:43.429Z,19.17
2022-11-03T01:49:36.179Z,19.15
2022-11-03T01:54:28.880Z,19.16
2022-11-03T01:59:21.785Z,19.16
2022-11-03T02:04:14.317Z,19.15
2022-11-03T02:09:07.018Z,19.13
2022-11-03T02:13:59.813Z,19.13
2022-11-03T02:18:52.527Z,19.11
2022-11-03T02:23:45.152Z,19.11
2022-11-03T02:28:37.897Z,19.09
2022-11-03T02:33:30.592Z,19.07
2022-11-03T02:38:23.257Z,19.06
2022-11-03T02:43:16.028Z,19.06
2022-11-03T02:48:08.794Z,19.03
2022-11-03T02:53:01.388Z,19.03
2022-11-03T02:57:53.979Z,19.02
2022-11-03T03:02:46.566Z,19.01
2022-11-03T03:07:39.170Z,19
2022-11-03T03:12:31.939Z,18.99
2022-11-03T03:17:24.587Z,18.97
2022-11-03T03:22:17.443Z,18.95
2022-11-03T03:27:10.236Z,18.96
2022-11-03T03:32:02.894Z,18.94
2022-11-03T03:36:55.625Z,18.92
2022-11-03T03:41:48.435Z,18.93
2022-11-03T03:46:40.913Z,18.91
2022-11-03T03:51:33.696Z,18.91
2022-11-03T03:56:26.361Z,18.88
2022-11-03T04:01:19.168Z,18.86
2022-11-03T04:06:11.607Z,18.85
2022-11-03T04:11:04.339Z,18.88
2022-11-03T04:15:57.130Z,18.84
2022-11-03T04:20:49.812Z,18.84
2022-11-03T04:25:42.670Z,18.84
2022-11-03T04:30:35.442Z,18.88
2022-11-03T04:35:28.341Z,18.98
2022-11-03T04:45:13.992Z,19.25
2022-11-03T04:50:06.977Z,19.27
2022-11-03T04:59:13.127Z,19.43
2022-11-03T05:09:15.648Z,19.94
2022-11-03T05:19:02.916Z,20.05
2022-11-03T05:23:55.193Z,20.07
2022-11-03T05:28:48.114Z,20.07
2022-11-03T05:33:40.747Z,20.09
2022-11-03T05:38:47.729Z,20.13
2022-11-03T05:43:37.891Z,20.26
2022-11-03T05:48:30.650Z,20.3
2022-11-03T05:53:23.009Z,20.33
2022-11-03T05:58:15.868Z,20.28
2022-11-03T06:03:08.640Z,20.19
2022-11-03T06:08:01.484Z,20.15
2022-11-03T06:12:54.332Z,20.15
2022-11-03T06:17:47.377Z,20.11
2022-11-03T06:22:40.069Z,20.09
2022-11-03T06:27:32.572Z,20.03
2022-11-03T06:32:25.218Z,19.98
2022-11-03T06:37:18.323Z,19.92
2022-11-03T06:42:10.964Z,19.87
2022-11-03T06:47:03.772Z,19.8
2022-11-03T06:51:56.596Z,19.75
2022-11-03T06:56:49.551Z,19.69
2022-11-03T07:01:42.415Z,19.87
2022-11-03T07:06:35.420Z,19.96
2022-11-03T07:11:28.258Z,19.97
2022-11-03T07:16:21.202Z,19.93
2022-11-03T07:21:14.028Z,19.89
2022-11-03T07:26:06.920Z,19.84
2022-11-03T07:30:59.697Z,19.83
2022-11-03T07:45:38.782Z,19.75
2022-11-03T07:50:31.115Z,19.69
2022-11-03T07:55:23.976Z,19.66
2022-11-03T08:00:16.877Z,19.64
2022-11-03T08:14:02.238Z,19.66
2022-11-03T08:18:53.670Z,19.65
2022-11-03T08:23:47.713Z,19.85
2022-11-03T08:28:38.635Z,19.93
2022-11-03T08:33:31.598Z,19.87
2022-11-03T08:38:24.741Z,19.97
2022-11-03T08:43:17.793Z,20.15
2022-11-03T08:48:11.114Z,20.44
2022-11-03T08:53:04.308Z,20.49
2022-11-03T08:57:57.625Z,20.51
2022-11-03T09:02:51.172Z,20.57
2022-11-03T09:12:36.850Z,20.64
2022-11-03T09:17:29.935Z,20.68
2022-11-03T09:22:22.692Z,20.82
2022-11-03T09:27:16.305Z,21.04
2022-11-03T09:32:09.491Z,21.24
2022-11-03T09:37:02.691Z,21.49
2022-11-03T09:41:58.816Z,21.7
2022-11-03T09:46:50.803Z,21.73
2022-11-03T09:51:42.961Z,21.71
2022-11-03T09:56:35.799Z,21.76
2022-11-03T10:01:29.113Z,21.85
2022-11-03T10:06:22.171Z,21.98
2022-11-03T10:11:15.507Z,22.16
2022-11-03T10:16:08.832Z,22.15
2022-11-03T10:21:01.850Z,22.17
2022-11-03T10:25:55.040Z,22.17
2022-11-03T10:31:09.859Z,22.21
2022-11-03T10:35:41.038Z,22.2
2022-11-03T10:40:49.474Z,22.17
2022-11-03T10:45:27.042Z,22.06
2022-11-03T10:50:20.397Z,22.13
2022-11-03T10:55:13.318Z,22.04
2022-11-03T11:00:07.161Z,22.12
2022-11-03T11:04:59.607Z,21.97
2022-11-03T11:09:52.404Z,22.01
2022-11-03T11:14:45.064Z,21.96
2022-11-03T11:19:38.077Z,21.99
2022-11-03T11:24:31.050Z,21.89
2022-11-03T11:29:24.076Z,21.83
2022-11-03T11:34:17.107Z,21.81
2022-11-03T11:39:09.869Z,21.76
2022-11-03T11:44:02.667Z,21.7
2022-11-03T11:48:55.705Z,21.65
2022-11-03T11:53:54.547Z,21.6
2022-11-03T11:58:42.363Z,21.63
2022-11-03T12:03:34.356Z,21.6
2022-11-03T12:08:27.585Z,21.54
2022-11-03T12:13:20.344Z,21.48
2022-11-03T12:18:13.371Z,21.47
2022-11-03T12:23:06.477Z,21.44
2022-11-03T12:27:59.395Z,21.4
2022-11-03T12:32:52.371Z,21.39
2022-11-03T12:37:45.524Z,21.35
2022-11-03T12:42:38.409Z,21.46
2022-11-03T12:47:31.618Z,21.54
2022-11-03T12:52:24.469Z,21.45
2022-11-03T12:57:17.440Z,21.4
2022-11-03T13:02:10.597Z,21.39
2022-11-03T13:07:03.486Z,21.34
2022-11-03T13:11:56.332Z,21.36
2022-11-03T13:16:49.225Z,21.39
2022-11-03T13:21:42.389Z,21.41
2022-11-03T13:26:35.358Z,21.35
2022-11-03T13:31:28.379Z,21.42
2022-11-03T13:36:21.540Z,21.36
2022-11-03T13:41:14.535Z,21.31
2022-11-03T13:46:07.663Z,21.35
2022-11-03T13:51:00.591Z,21.27
2022-11-03T13:55:54.299Z,21.19
2022-11-03T14:00:46.182Z,21.18
2022-11-03T14:05:38.895Z,21.07
2022-11-03T14:10:32.148Z,21.17
2022-11-03T14:15:26.031Z,21.19
2022-11-03T14:20:19.516Z,21.26
2022-11-03T14:25:12.427Z,21.26
2022-11-03T14:30:05.385Z,21.26
2022-11-03T14:34:58.261Z,21.25
2022-11-03T14:39:50.798Z,21.09
2022-11-03T14:44:43.879Z,21
2022-11-03T14:49:36.817Z,20.97
2022-11-03T14:54:32.001Z,20.92
2022-11-03T14:59:24.761Z,20.89
2022-11-03T15:04:17.977Z,20.84
2022-11-03T15:09:11.324Z,20.82
2022-11-03T15:14:04.216Z,20.79
2022-11-03T15:18:57.049Z,20.79
2022-11-03T15:28:45.310Z,20.62
2022-11-03T15:33:38.299Z,20.63
2022-11-03T15:38:31.384Z,20.64
2022-11-03T15:43:24.536Z,20.59
2022-11-03T15:48:17.632Z,20.58
2022-11-03T15:53:10.810Z,20.66
2022-11-03T15:58:04.515Z,20.79
2022-11-03T16:02:57.598Z,20.8
2022-11-03T16:07:50.534Z,20.7
2022-11-03T16:12:43.616Z,20.67
2022-11-03T16:17:39.146Z,20.63
2022-11-03T16:22:26.964Z,20.62
2022-11-03T16:27:21.023Z,20.59
2022-11-03T16:32:14.086Z,20.58
2022-11-03T16:37:07.141Z,20.56
2022-11-03T16:42:00.169Z,20.54
2022-11-03T16:46:53.081Z,20.52
2022-11-03T16:51:46.056Z,20.51
2022-11-03T16:56:39.149Z,20.5
2022-11-03T17:01:32.263Z,20.47
2022-11-03T17:06:24.991Z,20.44
2022-11-03T17:11:17.884Z,20.43
2022-11-03T17:16:10.934Z,20.41
2022-11-03T17:21:03.993Z,20.38
2022-11-03T17:25:56.960Z,20.38
2022-11-03T17:30:50.084Z,20.35
2022-11-03T17:35:43.070Z,20.31
2022-11-03T17:40:36.147Z,20.31
2022-11-03T17:45:29.142Z,20.3
2022-11-03T17:50:21.826Z,20.29
2022-11-03T17:55:14.780Z,20.32
2022-11-03T18:00:07.741Z,20.29
2022-11-03T18:05:00.727Z,20.28
2022-11-03T18:09:53.749Z,20.28
2022-11-03T18:14:46.868Z,20.26
2022-11-03T18:19:39.980Z,20.23
2022-11-03T18:24:33.200Z,20.23
2022-11-03T18:29:26.354Z,20.22
2022-11-03T18:34:19.187Z,20.21
2022-11-03T18:39:12.366Z,20.2
2022-11-03T18:44:05.149Z,20.2
2022-11-03T18:48:58.182Z,20.17
2022-11-03T18:53:51.079Z,20.15
2022-11-03T18:58:43.953Z,20.15
2022-11-03T19:03:37.117Z,20.14
2022-11-03T19:13:22.770Z,20.12
2022-11-03T19:23:08.963Z,20.12
2022-11-03T19:28:01.592Z,20.1
2022-11-03T19:32:54.550Z,20.09
2022-11-03T19:37:47.529Z,20.07
2022-11-03T19:42:40.877Z,20.06
2022-11-03T19:47:33.780Z,20.06
2022-11-03T19:52:20.878Z,20.06
2022-11-03T19:57:14.472Z,20.04
2022-11-03T20:02:08.580Z,20.05
2022-11-03T20:07:01.418Z,20.02
2022-11-03T20:11:54.316Z,20.01
2022-11-03T20:16:47.195Z,19.98
2022-11-03T20:21:40.337Z,19.98
2022-11-03T20:26:33.321Z,19.97
2022-11-03T20:31:26.276Z,19.96
2022-11-03T20:36:19.185Z,19.97
2022-11-03T20:41:12.017Z,19.94
2022-11-03T20:46:05.144Z,19.94
2022-11-03T20:50:58.105Z,19.93
2022-11-03T20:55:51.087Z,19.92
2022-11-03T21:00:43.886Z,19.9
2022-11-03T21:05:36.712Z,19.88
2022-11-03T21:10:29.712Z,19.87
2022-11-03T21:15:25.493Z,19.86
2022-11-03T21:20:15.464Z,19.84
2022-11-03T21:25:08.481Z,19.85
2022-11-03T21:30:01.494Z,19.82
2022-11-03T21:34:54.485Z,19.78
2022-11-03T21:39:47.294Z,19.75
2022-11-03T21:44:42.443Z,19.76
2022-11-03T21:49:35.142Z,19.77
2022-11-03T21:54:28.052Z,19.75
2022-11-03T21:59:20.879Z,19.73
2022-11-03T22:04:13.648Z,19.73
2022-11-03T22:09:06.692Z,19.73
2022-11-03T22:13:59.601Z,19.7
2022-11-03T22:18:52.569Z,19.7
2022-11-03T22:23:45.637Z,19.69
2022-11-03T22:28:38.443Z,19.69
2022-11-03T22:33:31.438Z,19.69
2022-11-03T22:38:24.373Z,19.67
2022-11-03T22:43:17.345Z,19.66
2022-11-03T22:48:10.525Z,19.65
2022-11-03T22:53:03.490Z,19.64
2022-11-03T22:57:56.306Z,19.64
2022-11-03T23:02:49.296Z,19.65
2022-11-03T23:07:42.029Z,19.62
2022-11-03T23:12:35.011Z,19.62
2022-11-03T23:17:27.894Z,19.6
2022-11-03T23:22:20.949Z,19.59
2022-11-03T23:27:13.860Z,19.58
2022-11-03T23:32:06.801Z,19.59
2022-11-03T23:36:59.850Z,19.55
2022-11-03T23:41:52.808Z,19.57
2022-11-03T23:46:45.960Z,19.57
2022-11-03T23:51:39.068Z,19.57
2022-11-03T23:56:32.020Z,19.57
